Time;durP1;ratioP1;P1;durP2;ratioP2;P2;SDS_P1;SDS_P2;PMS_P1;PMS_P2;Temp;Humidity;BMP_temperature;BMP_pressure;BME280_temperature;BME280_humidity;BME280_pressure;Samples;Min_cycle;Max_cycle;Signal;HPM_P1;HPM_P2
2021/10/27 00:00:23;;;;;;;3.85;1.60;;;;;;;21.19;49.02;102111.59;5093575;28;20387;-64
2021/10/27 00:02:49;;;;;;;3.92;1.60;;;;;;;21.19;49.10;102113.41;5092707;28;20440;-63
2021/10/27 00:05:14;;;;;;;3.53;1.65;;;;;;;21.18;49.11;102119.66;5093276;28;20047;-62
2021/10/27 00:07:40;;;;;;;3.67;1.57;;;;;;;21.16;49.26;102124.22;5093639;28;20147;-63
2021/10/27 00:10:06;;;;;;;3.90;1.50;;;;;;;21.16;49.17;102125.06;5092146;28;20264;-64
2021/10/27 00:12:31;;;;;;;3.90;1.60;;;;;;;21.16;49.08;102133.03;5093358;28;20058;-63
2021/10/27 00:14:57;;;;;;;3.63;1.50;;;;;;;21.15;49.25;102133.97;5093004;28;20099;-64
2021/10/27 00:17:22;;;;;;;2.38;1.40;;;;;;;21.15;49.08;102133.13;5092426;28;20505;-64
2021/10/27 00:19:48;;;;;;;2.78;1.40;;;;;;;21.13;48.98;102129.75;5093194;28;20016;-64
2021/10/27 00:22:13;;;;;;;4.10;1.70;;;;;;;21.12;49.22;102128.06;5093108;28;20043;-64
2021/10/27 00:24:38;;;;;;;2.97;1.60;;;;;;;21.10;49.27;102129.97;5092490;28;20676;-64
2021/10/27 00:27:06;;;;;;;3.22;1.50;;;;;;;21.09;49.28;102136.22;5092751;28;20039;-63
2021/10/27 00:29:32;;;;;;;3.65;1.60;;;;;;;21.08;49.52;102134.53;5093030;28;20020;-64
2021/10/27 00:31:58;;;;;;;3.05;1.50;;;;;;;21.07;49.20;102133.69;5091819;28;20038;-64
2021/10/27 00:34:23;;;;;;;3.35;1.58;;;;;;;21.06;49.44;102132.03;5092847;28;20110;-63
2021/10/27 00:36:48;;;;;;;3.33;1.63;;;;;;;21.06;49.36;102132.03;5093100;28;20059;-63
2021/10/27 00:39:13;;;;;;;5.18;1.73;;;;;;;21.05;49.72;102127.66;5091547;28;20536;-64
2021/10/27 00:41:43;;;;;;;4.93;1.90;;;;;;;21.06;49.45;102128.50;5092956;28;20463;-64
2021/10/27 00:44:21;;;;;;;3.35;1.75;;;;;;;21.04;49.39;102136.56;5092490;28;20281;-64
2021/10/27 00:46:47;;;;;;;3.67;1.63;;;;;;;21.04;49.42;102135.72;5092855;28;20024;-63
2021/10/27 00:49:13;;;;;;;4.13;1.60;;;;;;;21.03;49.40;102132.25;5092674;28;20056;-64
2021/10/27 00:51:39;;;;;;;3.40;1.52;;;;;;;21.01;49.19;102134.13;5091910;28;20510;-63
2021/10/27 00:54:04;;;;;;;3.42;1.42;;;;;;;21.01;49.50;102123.53;5092250;28;20047;-63
2021/10/27 00:56:31;;;;;;;3.43;1.50;;;;;;;21.00;49.49;102122.69;5092652;28;20028;-64
2021/10/27 00:58:57;;;;;;;3.97;1.67;;;;;;;21.01;49.51;102126.19;5091474;28;20284;-64
2021/10/27 01:01:22;;;;;;;4.05;1.80;;;;;;;20.98;49.61;102119.31;5092709;28;20032;-63
2021/10/27 01:03:48;;;;;;;3.53;1.60;;;;;;;20.97;49.33;102120.28;5092659;28;20020;-63
2021/10/27 01:06:13;;;;;;;2.97;1.45;;;;;;;20.97;49.38;102114.97;5091593;28;20089;-63
2021/10/27 01:08:38;;;;;;;2.33;1.30;;;;;;;20.96;49.41;102115.09;5092654;28;20032;-64
2021/10/27 01:11:04;;;;;;;3.35;1.55;;;;;;;20.94;49.45;102109.91;5092277;28;20288;-63
2021/10/27 01:13:30;;;;;;;3.78;1.70;;;;;;;20.95;49.66;102106.31;5091547;28;20036;-64
2021/10/27 01:15:55;;;;;;;4.75;1.60;;;;;;;20.96;49.50;102099.19;5092358;28;20032;-64
2021/10/27 01:18:21;;;;;;;2.95;1.50;;;;;;;20.94;49.59;102103.75;5092459;28;20024;-63
2021/10/27 01:20:46;;;;;;;5.63;1.70;;;;;;;20.93;49.55;102096.75;5091859;28;20020;-64
2021/10/27 01:23:11;;;;;;;3.95;1.48;;;;;;;20.93;49.65;102104.72;5092021;28;20027;-63
2021/10/27 01:25:37;;;;;;;3.42;1.60;;;;;;;20.90;49.67;102092.53;5092501;28;20028;-64
2021/10/27 01:28:02;;;;;;;2.88;1.33;;;;;;;20.90;49.70;102100.47;5091224;27;20040;-63
2021/10/27 01:30:28;;;;;;;3.88;1.58;;;;;;;20.91;49.54;102102.19;5092424;27;20050;-64
2021/10/27 01:32:54;;;;;;;2.85;1.48;;;;;;;20.91;49.69;102094.22;5092502;28;20024;-64
2021/10/27 01:35:19;;;;;;;3.42;1.60;;;;;;;20.90;49.70;102096.97;5091403;28;20027;-63
2021/10/27 01:37:45;;;;;;;5.45;1.52;;;;;;;20.88;49.64;102099.75;5092398;28;20475;-63
2021/10/27 01:40:14;;;;;;;3.60;1.80;;;;;;;20.88;49.90;102094.44;5091965;28;20023;-64
2021/10/27 01:42:40;;;;;;;3.40;1.48;;;;;;;20.88;49.66;102097.09;5091857;28;20355;-64
2021/10/27 01:45:09;;;;;;;3.25;1.40;;;;;;;20.87;49.78;102091.91;5091771;28;20036;-64
2021/10/27 01:47:34;;;;;;;3.28;1.63;;;;;;;20.86;49.46;102095.53;5092103;28;20324;-64
2021/10/27 01:50:00;;;;;;;4.50;1.45;;;;;;;20.86;49.73;102095.53;5091289;28;20020;-64
2021/10/27 01:52:26;;;;;;;3.38;1.42;;;;;;;20.83;49.87;102086.00;5094430;28;20044;-64
2021/10/27 01:54:51;;;;;;;3.10;1.50;;;;;;;20.83;49.65;102088.66;5095232;28;20032;-64
2021/10/27 01:57:17;;;;;;;2.95;1.30;;;;;;;20.84;49.69;102085.06;5095538;28;20024;-63
2021/10/27 01:59:42;;;;;;;3.15;1.25;;;;;;;20.85;49.58;102084.06;5095838;28;20028;-64
2021/10/27 02:02:07;;;;;;;3.38;1.40;;;;;;;20.84;49.48;102085.06;5094866;28;20471;-64
2021/10/27 02:04:33;;;;;;;3.42;1.50;;;;;;;20.86;49.65;102084.94;5095914;28;20044;-63
2021/10/27 02:07:00;;;;;;;3.33;1.50;;;;;;;20.85;49.58;102092.03;5095295;28;20030;-64
2021/10/27 02:09:26;;;;;;;3.50;1.30;;;;;;;20.84;49.68;102090.34;5094888;28;20466;-65
2021/10/27 02:11:51;;;;;;;2.92;1.42;;;;;;;20.83;49.59;102084.19;5095692;28;20040;-64
2021/10/27 02:14:16;;;;;;;2.97;1.43;;;;;;;20.84;49.58;102088.53;5095623;28;20126;-62
2021/10/27 02:16:42;;;;;;;3.05;1.48;;;;;;;20.82;49.48;102084.28;5095049;28;20281;-63
2021/10/27 02:19:08;;;;;;;3.83;1.42;;;;;;;20.81;49.63;102091.41;5095438;28;20502;-63
2021/10/27 02:21:34;;;;;;;3.13;1.30;;;;;;;20.81;49.59;102087.91;5095366;28;20443;-63
2021/10/27 02:24:00;;;;;;;3.97;1.38;;;;;;;20.81;49.62;102086.09;5094343;28;20102;-63
2021/10/27 02:26:25;;;;;;;4.85;1.75;;;;;;;20.80;49.63;102089.72;5095440;28;20474;-63
2021/10/27 02:28:51;;;;;;;3.25;1.60;;;;;;;20.79;49.72;102081.88;5095326;28;20024;-63
2021/10/27 02:31:16;;;;;;;3.67;1.40;;;;;;;20.81;49.67;102093.22;5094451;28;20402;-63
2021/10/27 02:33:41;;;;;;;3.33;1.40;;;;;;;20.80;49.70;102084.41;5095438;28;20394;-63
2021/10/27 02:36:07;;;;;;;3.47;1.27;;;;;;;20.79;49.60;102101.28;5094963;28;20027;-65
2021/10/27 02:38:32;;;;;;;4.88;1.58;;;;;;;20.80;49.75;102104.75;5094695;27;20311;-63
2021/10/27 02:40:58;;;;;;;2.55;1.40;;;;;;;20.80;49.64;102102.13;5095145;28;20351;-64
2021/10/27 02:43:23;;;;;;;3.25;1.50;;;;;;;20.78;49.86;102093.44;5095239;28;20481;-64
2021/10/27 02:45:49;;;;;;;4.30;1.55;;;;;;;20.77;49.64;102097.03;5094921;28;20035;-62
2021/10/27 02:48:14;;;;;;;3.60;1.35;;;;;;;20.77;49.66;102091.75;5095405;27;20085;-62
2021/10/27 02:50:40;;;;;;;3.28;1.58;;;;;;;20.75;49.63;102086.56;5095774;28;20028;-61
2021/10/27 02:53:06;;;;;;;2.80;1.38;;;;;;;20.75;49.92;102088.38;5094444;28;20506;-63
2021/10/27 02:55:32;;;;;;;3.40;1.67;;;;;;;20.74;49.65;102073.41;5095266;28;20028;-63
2021/10/27 02:58:00;;;;;;;5.85;1.60;;;;;;;20.75;49.83;102085.72;5094107;28;20030;-63
2021/10/27 03:00:26;;;;;;;3.33;1.42;;;;;;;20.74;49.78;102086.66;5094652;28;20356;-64
2021/10/27 03:02:51;;;;;;;3.78;1.55;;;;;;;20.75;49.68;102098.97;5094229;28;20051;-64
2021/10/27 03:05:16;;;;;;;4.15;1.83;;;;;;;20.75;49.70;102099.81;5093734;28;20039;-64
2021/10/27 03:07:42;;;;;;;4.07;1.60;;;;;;;20.73;49.83;102093.78;5094562;28;20023;-64
2021/10/27 03:10:08;;;;;;;4.10;1.50;;;;;;;20.73;49.59;102101.72;5094192;28;20050;-63
2021/10/27 03:12:33;;;;;;;3.40;1.45;;;;;;;20.72;49.66;102094.72;5093601;28;20137;-63
2021/10/27 03:14:58;;;;;;;3.97;1.48;;;;;;;20.72;49.48;102089.44;5094263;28;20040;-63
2021/10/27 03:17:24;;;;;;;3.30;1.30;;;;;;;20.70;49.62;102086.06;5094528;28;20483;-63
2021/10/27 03:19:49;;;;;;;3.28;1.45;;;;;;;20.73;49.58;102092.91;5093505;28;20123;-64
2021/10/27 03:22:14;;;;;;;3.90;1.50;;;;;;;20.71;49.55;102097.47;5094011;27;20179;-62
2021/10/27 03:24:39;;;;;;;3.83;1.50;;;;;;;20.70;50.00;102099.28;5094238;28;20085;-63
2021/10/27 03:27:05;;;;;;;2.97;1.40;;;;;;;20.70;49.71;102093.16;5092951;28;20020;-63
2021/10/27 03:29:30;;;;;;;3.20;1.38;;;;;;;20.69;49.90;102091.47;5094358;28;20277;-63
2021/10/27 03:31:56;;;;;;;3.70;1.42;;;;;;;20.68;49.71;102097.69;5094182;28;20095;-64
2021/10/27 03:34:21;;;;;;;3.40;1.38;;;;;;;20.69;49.69;102094.94;5093472;28;20409;-62
2021/10/27 03:36:46;;;;;;;3.78;1.42;;;;;;;20.71;49.62;102100.13;5094163;28;20039;-64
2021/10/27 03:39:12;;;;;;;3.78;1.60;;;;;;;20.68;49.58;102098.56;5093764;28;20034;-64
2021/10/27 03:41:38;;;;;;;3.60;1.63;;;;;;;20.69;49.61;102099.41;5093017;28;20487;-64
2021/10/27 03:44:04;;;;;;;2.85;1.48;;;;;;;20.66;49.63;102111.06;5093995;28;20020;-63
2021/10/27 03:46:29;;;;;;;3.50;1.42;;;;;;;20.65;49.71;102107.56;5093954;28;20161;-63
2021/10/27 03:48:54;;;;;;;4.15;1.60;;;;;;;20.64;49.70;102105.03;5093095;28;20031;-63
2021/10/27 03:51:20;;;;;;;4.47;1.80;;;;;;;20.64;49.72;102112.97;5093405;28;20075;-62
2021/10/27 03:53:45;;;;;;;3.47;1.50;;;;;;;20.63;49.63;102100.66;5093614;28;20283;-63
2021/10/27 03:56:10;;;;;;;3.67;1.60;;;;;;;20.62;49.69;102098.97;5092479;28;20495;-63
2021/10/27 03:58:36;;;;;;;4.33;1.50;;;;;;;20.62;49.74;102110.41;5093870;28;20377;-63
2021/10/27 04:01:01;;;;;;;3.42;1.88;;;;;;;20.61;49.66;102111.34;5093414;28;20364;-64
2021/10/27 04:03:27;;;;;;;3.88;1.58;;;;;;;20.60;49.64;102116.75;5093077;28;20023;-63
2021/10/27 04:05:52;;;;;;;3.53;1.35;;;;;;;20.58;49.65;102116.03;5093960;28;20041;-64
2021/10/27 04:08:18;;;;;;;3.40;1.55;;;;;;;20.57;49.75;102109.91;5092899;28;20028;-63
2021/10/27 04:10:47;;;;;;;3.58;1.52;;;;;;;20.58;49.64;102110.75;5093625;28;20520;-63
2021/10/27 04:13:17;;;;;;;4.20;1.80;;;;;;;20.56;49.70;102110.84;5093336;28;20044;-64
2021/10/27 04:15:43;;;;;;;3.28;1.40;;;;;;;20.56;49.76;102115.31;5092390;28;20016;-64
2021/10/27 04:18:09;;;;;;;3.60;1.60;;;;;;;20.55;49.62;102110.97;5093337;28;20054;-64
2021/10/27 04:20:35;;;;;;;4.00;1.90;;;;;;;20.54;49.80;102109.28;5093537;28;20032;-63
2021/10/27 04:23:00;;;;;;;3.03;1.40;;;;;;;20.55;49.66;102116.25;5092404;28;20024;-63
2021/10/27 04:25:26;;;;;;;3.30;1.27;;;;;;;20.54;49.53;102114.56;5093895;28;20026;-64
2021/10/27 04:27:51;;;;;;;3.03;1.20;;;;;;;20.53;49.52;102112.88;5093278;28;20480;-65
2021/10/27 04:30:20;;;;;;;3.53;1.50;;;;;;;20.50;49.66;102106.00;5092380;28;20032;-62
2021/10/27 04:32:46;;;;;;;4.38;2.05;;;;;;;20.51;49.80;102106.84;5093324;28;20032;-64
2021/10/27 04:35:11;;;;;;;3.03;1.40;;;;;;;20.49;49.63;102104.31;5093031;28;20047;-63
2021/10/27 04:37:41;;;;;;;3.70;1.48;;;;;;;20.49;49.75;102109.63;5092550;28;20080;-63
2021/10/27 04:40:09;;;;;;;3.83;1.52;;;;;;;20.47;49.70;102107.06;5092747;28;20036;-64
2021/10/27 04:42:36;;;;;;;3.25;1.60;;;;;;;20.47;49.63;102120.31;5093239;28;20040;-64
2021/10/27 04:45:04;;;;;;;3.20;1.50;;;;;;;20.46;49.68;102117.78;5092207;28;20028;-63
2021/10/27 04:47:29;;;;;;;3.97;1.35;;;;;;;20.45;49.82;102113.41;5092841;28;20063;-64
2021/10/27 04:49:54;;;;;;;3.60;1.60;;;;;;;20.44;49.49;102114.38;5092871;28;20039;-64
2021/10/27 04:52:19;;;;;;;3.93;1.60;;;;;;;20.44;49.63;102120.53;5091629;28;20320;-63
2021/10/27 04:54:45;;;;;;;4.97;1.40;;;;;;;20.43;49.74;102124.13;5092873;28;20682;-63
2021/10/27 04:57:10;;;;;;;3.15;1.60;;;;;;;20.43;49.60;102131.22;5092666;28;20364;-63
2021/10/27 04:59:41;;;;;;;3.37;1.53;;;;;;;20.41;49.74;102128.69;5092199;28;20036;-65
2021/10/27 05:02:07;;;;;;;2.75;1.35;;;;;;;20.42;49.66;102126.88;5092596;28;20292;-64
2021/10/27 05:04:33;;;;;;;3.22;1.48;;;;;;;20.40;49.88;102131.44;5092565;28;20119;-64
2021/10/27 05:06:58;;;;;;;3.65;1.40;;;;;;;20.40;49.76;102126.16;5091994;28;20111;-63
2021/10/27 05:09:23;;;;;;;4.30;1.40;;;;;;;20.40;49.71;102119.03;5092831;28;20111;-64
2021/10/27 05:11:49;;;;;;;4.33;1.77;;;;;;;20.40;49.72;102126.16;5092206;28;20032;-63
2021/10/27 05:14:14;;;;;;;3.65;1.38;;;;;;;20.38;49.80;102128.91;5092246;28;20027;-64
2021/10/27 05:16:39;;;;;;;3.67;1.52;;;;;;;20.39;49.68;102124.44;5092924;28;20046;-65
2021/10/27 05:19:05;;;;;;;3.75;1.70;;;;;;;20.37;49.64;102124.56;5091778;28;20440;-63
2021/10/27 05:21:30;;;;;;;3.85;1.35;;;;;;;20.37;49.64;102127.19;5092606;28;20040;-65
2021/10/27 05:23:58;;;;;;;3.50;1.40;;;;;;;20.36;49.74;102125.53;5092694;28;20036;-64
2021/10/27 05:26:24;;;;;;;2.60;1.10;;;;;;;20.40;49.69;102123.50;5094651;28;20156;-64
2021/10/27 05:28:49;;;;;;;3.17;1.42;;;;;;;20.50;49.62;102123.69;5096873;28;20509;-62
2021/10/27 05:31:15;;;;;;;4.00;1.30;;;;;;;20.59;49.36;102125.69;5096238;28;20122;-64
2021/10/27 05:33:40;;;;;;;3.15;1.40;;;;;;;20.68;49.50;102134.78;5095621;28;20068;-64
2021/10/27 05:36:05;;;;;;;2.50;1.20;;;;;;;20.75;49.33;102126.28;5096065;28;20115;-64
2021/10/27 05:38:31;;;;;;;2.30;1.10;;;;;;;20.79;49.04;102122.47;5096514;28;20020;-64
2021/10/27 05:40:57;;;;;;;2.55;1.15;;;;;;;20.83;48.76;102123.94;5095313;28;20028;-63
2021/10/27 05:43:23;;;;;;;2.55;1.02;;;;;;;20.89;48.76;102127.13;5096515;28;20043;-63
2021/10/27 05:45:52;;;;;;;2.95;1.10;;;;;;;20.93;48.80;102116.16;5096373;28;20071;-63
2021/10/27 05:48:18;;;;;;;3.53;1.20;;;;;;;21.00;48.64;102120.06;5095355;28;20032;-62
2021/10/27 05:50:56;;;;;;;3.08;1.38;;;;;;;21.07;48.49;102127.56;5096353;28;20077;-62
2021/10/27 05:56:06;;;;;;;4.28;1.40;;;;;;;21.16;48.44;102125.06;5095313;28;20120;-63
2021/10/27 05:58:31;;;;;;;2.20;1.00;;;;;;;21.19;47.93;102116.88;5096241;28;20056;-64
2021/10/27 06:00:58;;;;;;;2.22;1.00;;;;;;;21.22;47.99;102113.16;5094853;28;20024;-64
2021/10/27 06:03:23;;;;;;;3.55;1.85;;;;;;;21.25;48.21;102120.03;5096040;28;20546;-62
2021/10/27 06:05:48;;;;;;;2.63;1.23;;;;;;;21.26;47.98;102119.09;5096290;28;20063;-63
2021/10/27 06:08:15;;;;;;;2.60;1.10;;;;;;;21.26;47.70;102117.28;5094598;28;20032;-64
2021/10/27 06:10:41;;;;;;;2.33;1.00;;;;;;;21.23;48.18;102121.97;5095681;28;20512;-63
2021/10/27 06:13:09;;;;;;;2.30;1.13;;;;;;;21.23;48.15;102119.31;5095380;28;20028;-64
2021/10/27 06:15:35;;;;;;;2.42;1.00;;;;;;;21.24;48.27;102119.19;5094691;28;20077;-64
2021/10/27 06:18:01;;;;;;;2.63;1.13;;;;;;;21.27;48.21;102123.41;5095518;28;20475;-64
2021/10/27 06:20:27;;;;;;;3.42;1.20;;;;;;;21.30;48.20;102118.75;5095596;28;20107;-63
2021/10/27 06:22:53;;;;;;;3.15;1.17;;;;;;;21.35;47.98;102124.53;5094695;28;20104;-63
2021/10/27 06:25:18;;;;;;;4.15;1.73;;;;;;;21.34;48.01;102127.31;5095052;28;20483;-64
2021/10/27 06:27:47;;;;;;;2.88;1.40;;;;;;;21.32;48.10;102130.06;5095358;28;20036;-62
2021/10/27 06:30:28;;;;;;;2.30;1.00;;;;;;;21.33;48.07;102139.72;5094051;28;20377;-64
2021/10/27 06:35:28;;;;;;;2.55;1.20;;;;;;;21.33;48.21;102141.50;5095049;28;20024;-63
2021/10/27 06:46:28;;;;;;;2.92;1.10;;;;;;;21.41;47.88;102154.19;5098215;28;20489;-65
2021/10/27 06:48:48;;;;;;;2.50;1.10;;;;;;;21.42;47.82;102163.84;5094493;28;20086;-66
2021/10/27 06:51:14;;;;;;;2.53;1.08;;;;;;;21.45;47.81;102164.47;5093257;28;20028;-66
2021/10/27 06:53:39;;;;;;;2.45;0.98;;;;;;;21.48;47.67;102166.94;5094607;28;20493;-65
2021/10/27 06:56:11;;;;;;;2.55;1.23;;;;;;;21.50;47.75;102167.66;5094304;28;20028;-67
2021/10/27 06:58:44;;;;;;;2.55;1.17;;;;;;;21.52;47.71;102163.09;5093792;28;20036;-65
2021/10/27 07:01:13;;;;;;;3.17;1.33;;;;;;;21.54;47.81;102160.31;5094086;28;20396;-67
2021/10/27 07:04:01;;;;;;;3.00;1.02;;;;;;;21.54;47.63;102170.94;5094202;28;20024;-70
2021/10/27 07:17:25;;;;;;;3.60;1.30;;;;;;;21.40;48.35;102176.41;5094981;28;20120;-65
2021/10/27 07:19:50;;;;;;;3.75;1.30;;;;;;;21.44;48.27;102177.84;5093369;28;20032;-61
2021/10/27 07:22:16;;;;;;;4.93;1.63;;;;;;;21.49;48.24;102181.88;5093701;28;20031;-62
2021/10/27 07:24:42;;;;;;;3.75;1.48;;;;;;;21.54;48.00;102182.38;5094003;28;20028;-61
2021/10/27 07:27:12;;;;;;;3.42;1.30;;;;;;;21.60;48.13;102180.22;5092922;28;20432;-62
2021/10/27 07:29:38;;;;;;;3.83;1.50;;;;;;;21.63;47.95;102185.31;5093969;28;20119;-62
2021/10/27 07:32:07;;;;;;;3.05;1.40;;;;;;;21.64;47.90;102187.84;5093603;28;20032;-61
2021/10/27 07:34:38;;;;;;;4.30;1.30;;;;;;;21.65;47.94;102184.22;5093029;28;20028;-62
2021/10/27 07:42:32;;;;;;;3.53;1.35;;;;;;;21.66;47.84;102190.38;5093895;28;20043;-63
2021/10/27 07:44:58;;;;;;;3.05;1.10;;;;;;;21.66;47.94;102193.88;5093155;28;20043;-62
2021/10/27 07:47:26;;;;;;;3.58;1.42;;;;;;;21.64;47.93;102189.66;5089125;27;20031;-62
2021/10/27 07:49:51;;;;;;;5.07;1.25;;;;;;;21.64;47.97;102184.34;5026058;27;20071;-62
2021/10/27 07:52:17;;;;;;;3.38;1.48;;;;;;;21.62;47.91;102195.06;5072828;28;20064;-62
2021/10/27 07:54:42;;;;;;;4.32;1.40;;;;;;;21.62;47.76;102195.06;5072476;28;20036;-62
2021/10/27 07:57:07;;;;;;;3.28;1.48;;;;;;;21.62;48.09;102199.50;5072916;28;20356;-62
2021/10/27 07:59:33;;;;;;;4.70;1.40;;;;;;;21.61;48.13;102208.44;5073083;28;20447;-63
2021/10/27 08:02:06;;;;;;;4.97;1.50;;;;;;;21.59;48.12;102211.22;5071867;28;20292;-62
2021/10/27 08:04:35;;;;;;;6.35;2.33;;;;;;;21.59;48.39;102221.84;5073938;28;20036;-65
2021/10/27 08:07:01;;;;;;;3.92;1.50;;;;;;;21.56;48.14;102222.06;5073718;28;20024;-65
2021/10/27 08:09:26;;;;;;;3.88;1.58;;;;;;;21.56;48.53;102230.84;5073044;28;20033;-63
2021/10/27 08:11:52;;;;;;;4.78;2.15;;;;;;;21.60;48.51;102233.28;5074129;28;20027;-64
2021/10/27 08:14:17;;;;;;;3.67;1.50;;;;;;;21.61;48.43;102235.81;5073994;28;20119;-64
2021/10/27 08:16:43;;;;;;;4.68;1.30;;;;;;;21.65;48.25;102231.13;5073697;28;20317;-62
2021/10/27 08:19:09;;;;;;;6.88;2.50;;;;;;;21.71;48.32;102231.53;5073747;28;20095;-63
2021/10/27 08:21:34;;;;;;;4.38;1.80;;;;;;;21.74;48.04;102233.94;5074071;28;20048;-62
2021/10/27 08:24:04;;;;;;;3.03;1.40;;;;;;;21.76;48.27;102232.97;5073409;28;20020;-64
2021/10/27 08:26:29;;;;;;;3.10;1.50;;;;;;;21.79;48.04;102232.75;5073056;28;20100;-63
2021/10/27 08:36:19;;;;;;;3.47;1.35;;;;;;;21.81;48.08;102230.81;5071271;28;20098;-65
2021/10/27 08:38:45;;;;;;;4.28;1.15;;;;;;;21.77;48.13;102230.22;5072196;28;20032;-61
2021/10/27 08:41:12;;;;;;;4.72;1.38;;;;;;;21.78;48.07;102225.75;5071905;28;20028;-63
2021/10/27 08:43:37;;;;;;;3.75;1.65;;;;;;;21.73;48.19;102229.59;5071315;28;20086;-63
2021/10/27 08:46:05;;;;;;;3.55;1.40;;;;;;;21.70;48.20;102229.84;5071885;28;20028;-64
2021/10/27 08:48:31;;;;;;;3.53;1.27;;;;;;;21.71;48.13;102228.88;5072125;28;20040;-64
2021/10/27 08:50:57;;;;;;;3.30;1.35;;;;;;;21.71;48.32;102230.66;5070949;28;20032;-62
2021/10/27 08:53:24;;;;;;;5.53;1.60;;;;;;;21.71;48.16;102225.34;5071646;28;20040;-65
2021/10/27 08:55:51;;;;;;;2.05;1.10;;;;;;;21.70;48.19;102224.53;5072067;28;20557;-62
2021/10/27 08:58:23;;;;;;;4.07;1.45;;;;;;;21.71;48.44;102228.00;5070902;28;20025;-62
2021/10/27 09:06:26;;;;;;;3.50;1.38;;;;;;;21.69;48.50;102238.75;5070976;28;20491;-63
2021/10/27 09:33:38;;;;;;;3.22;1.48;;;;;;;21.85;48.47;102232.28;5072355;28;20051;-66
2021/10/27 09:33:41;;;;;;;3.20;1.30;;;;;;;21.89;48.37;102231.94;5071317;28;20029;-66
2021/10/27 09:44:53;;;;;;;2.60;1.15;;;;;;;22.10;47.94;102234.75;5071257;28;20028;-67
2021/10/27 10:06:16;;;;;;;3.33;1.40;;;;;;;22.22;47.91;102234.78;5072041;28;20075;-65
2021/10/27 10:08:44;;;;;;;3.63;1.35;;;;;;;22.17;47.97;102235.13;5071090;28;20439;-64
2021/10/27 10:11:11;;;;;;;3.80;1.40;;;;;;;22.15;47.88;102239.72;5071582;28;20037;-62
2021/10/27 10:13:38;;;;;;;8.43;1.80;;;;;;;22.12;48.17;102233.81;5074766;28;20031;-64
2021/10/27 10:16:03;;;;;;;3.42;1.38;;;;;;;22.13;47.74;102238.13;5074795;28;20032;-64
2021/10/27 10:18:30;;;;;;;4.38;1.50;;;;;;;22.16;47.99;102230.81;5075755;28;20437;-61
2021/10/27 10:20:56;;;;;;;4.53;1.50;;;;;;;22.18;48.14;102234.19;5075562;28;20077;-65
2021/10/27 10:23:24;;;;;;;4.60;1.33;;;;;;;22.20;47.80;102242.03;5074624;28;20024;-65
2021/10/27 10:26:06;;;;;;;4.72;1.70;;;;;;;22.19;47.84;102240.31;5075654;28;20033;-66
2021/10/27 10:28:40;;;;;;;2.70;1.25;;;;;;;22.19;47.82;102237.66;5074760;28;20054;-68
2021/10/27 10:31:07;;;;;;;3.20;1.50;;;;;;;22.20;47.84;102231.41;5075371;28;20021;-64
2021/10/27 10:33:42;;;;;;;4.65;1.70;;;;;;;22.20;47.69;102237.56;5075241;28;20052;-68
2021/10/27 10:36:27;;;;;;;3.08;1.20;;;;;;;22.21;47.89;102238.41;5075332;28;20037;-63
2021/10/27 10:56:30;;;;;;;4.85;1.38;;;;;;;22.10;48.01;102247.19;5074618;28;20027;-68
2021/10/27 11:24:49;;;;;;;4.18;1.80;;;;;;;22.26;47.72;102228.28;5079059;28;20035;-65
2021/10/27 11:41:35;;;;;;;2.92;1.10;;;;;;;22.13;48.07;102228.38;5073356;28;20081;-66
2021/10/27 11:44:14;;;;;;;3.63;1.40;;;;;;;22.11;47.87;102230.28;5073310;28;20044;-68
2021/10/27 11:46:45;;;;;;;3.40;1.20;;;;;;;22.11;47.88;102219.66;5072670;28;20025;-65
2021/10/27 11:49:12;;;;;;;3.45;1.20;;;;;;;22.11;48.13;102219.66;5073040;28;20426;-64
2021/10/27 11:51:38;;;;;;;4.45;1.33;;;;;;;22.12;48.01;102215.22;5073425;28;20028;-64
2021/10/27 11:54:11;;;;;;;4.32;1.30;;;;;;;22.10;48.13;102224.16;5072376;28;20345;-63
2021/10/27 11:56:36;;;;;;;3.38;1.45;;;;;;;22.07;48.13;102218.22;5073585;28;20086;-67
2021/10/27 11:59:01;;;;;;;6.50;1.45;;;;;;;22.04;48.12;102216.66;5073093;28;20028;-63
2021/10/27 12:01:35;;;;;;;3.93;1.33;;;;;;;22.05;48.22;102213.03;5072446;28;20029;-67
2021/10/27 12:04:01;;;;;;;;;;;;;;;22.03;48.33;102206.16;5073346;28;20760;-65
2021/10/27 12:06:47;;;;;;;3.60;1.30;;;;;;;22.01;48.21;102208.91;5073286;28;19978;-64
2021/10/27 12:09:41;;;;;;;2.83;1.42;;;;;;;22.00;48.41;102203.72;5073116;28;20115;-67
2021/10/27 12:17:32;;;;;;;3.60;1.33;;;;;;;21.91;48.51;102197.31;5072794;28;20032;-64
2021/10/27 12:19:58;;;;;;;3.25;1.30;;;;;;;21.93;48.30;102198.88;5072620;28;20109;-62
2021/10/27 12:22:24;;;;;;;6.03;1.60;;;;;;;21.90;48.31;102192.97;5072010;28;20031;-62
2021/10/27 12:24:59;;;;;;;2.97;1.30;;;;;;;21.85;48.37;102192.47;5072827;28;20345;-64
2021/10/27 12:27:40;;;;;;;3.63;1.20;;;;;;;21.83;48.44;102187.28;5072779;28;20376;-63
2021/10/27 12:30:08;;;;;;;4.72;1.13;;;;;;;21.82;48.36;102187.41;5072505;28;20459;-63
2021/10/27 12:32:34;;;;;;;3.08;1.40;;;;;;;21.79;48.60;102185.81;5072798;28;20027;-63
2021/10/27 12:35:06;;;;;;;4.28;1.30;;;;;;;21.76;48.60;102180.75;5070854;28;20049;-63
2021/10/27 12:37:43;;;;;;;4.10;1.20;;;;;;;21.76;48.68;102179.91;5073107;28;20039;-65
2021/10/27 12:40:20;;;;;;;3.45;1.35;;;;;;;21.74;48.64;102167.59;5072460;28;20020;-63
2021/10/27 12:42:47;;;;;;;3.67;1.17;;;;;;;21.75;48.53;102163.16;5071911;28;20071;-63
2021/10/27 12:45:12;;;;;;;4.60;1.38;;;;;;;21.75;48.70;102163.16;5072238;28;20399;-63
2021/10/27 12:47:39;;;;;;;3.40;1.20;;;;;;;21.77;48.36;102163.03;5072515;28;20108;-63
2021/10/27 12:50:15;;;;;;;3.55;1.20;;;;;;;21.80;48.77;102160.16;5071955;28;20491;-63
2021/10/27 12:52:53;;;;;;;4.18;1.38;;;;;;;21.80;48.47;102154.84;5072493;28;20044;-63
2021/10/27 12:55:26;;;;;;;3.22;1.13;;;;;;;21.83;48.57;102146.66;5072122;28;20482;-62
2021/10/27 12:58:08;;;;;;;3.05;1.17;;;;;;;21.84;48.34;102146.53;5071526;28;20123;-62
2021/10/27 13:06:22;;;;;;;3.03;1.20;;;;;;;21.88;48.52;102133.88;5072013;28;20135;-62
2021/10/27 13:19:36;;;;;;;2.90;1.20;;;;;;;21.89;48.06;102131.09;5073066;28;20032;-63
2021/10/27 13:22:15;;;;;;;4.28;1.20;;;;;;;21.94;47.94;102122.78;5074966;28;20068;-64
2021/10/27 13:30:34;;;;;;;2.90;1.10;;;;;;;22.14;47.89;102123.03;5074654;28;20093;-66
2021/10/27 13:33:03;;;;;;;2.95;1.10;;;;;;;22.22;47.39;102120.59;5079068;28;20036;-64
2021/10/27 13:35:28;;;;;;;3.10;1.02;;;;;;;22.27;47.17;102110.47;5079604;28;20020;-64
2021/10/27 13:38:03;;;;;;;2.90;1.20;;;;;;;22.32;46.95;102108.34;5075125;28;20081;-63
2021/10/27 13:40:29;;;;;;;3.60;1.20;;;;;;;22.37;46.86;102106.16;5073585;28;20080;-64
2021/10/27 13:43:15;;;;;;;2.50;1.02;;;;;;;22.48;46.96;102100.00;5075803;28;20024;-64
2021/10/27 14:10:07;;;;;;;2.95;1.10;;;;;;;22.25;47.03;102096.47;5075493;28;20036;-66
2021/10/27 14:12:52;;;;;;;5.32;1.45;;;;;;;22.23;47.22;102091.28;5075607;28;20032;-67
2021/10/27 14:15:46;;;;;;;2.45;1.27;;;;;;;22.21;47.35;102095.03;5074915;28;20146;-66
2021/10/27 14:22:16;;;;;;;3.13;1.20;;;;;;;22.14;47.43;102089.34;5075178;28;20024;-68
2021/10/27 14:48:08;;;;;;;;;;;;;;;21.90;48.34;102060.28;5075528;28;20067;-66
2021/10/27 15:21:07;;;;;;;3.38;1.30;;;;;;;21.91;48.05;102046.06;5073970;28;20446;-65
2021/10/27 15:28:51;;;;;;;2.38;1.10;;;;;;;21.89;48.19;102040.03;5074127;28;20079;-65
2021/10/27 15:31:28;;;;;;;3.50;1.50;;;;;;;21.89;48.10;102040.88;5072787;28;20036;-64
2021/10/27 15:44:32;;;;;;;4.90;1.90;;;;;;;21.88;48.39;102031.19;5072894;28;20487;-63
2021/10/27 15:52:26;;;;;;;4.93;1.50;;;;;;;21.84;48.48;102039.53;5072585;28;20060;-62
2021/10/27 15:54:51;;;;;;;6.88;2.10;;;;;;;21.82;48.51;102039.63;5073175;28;20029;-64
2021/10/27 15:57:17;;;;;;;6.65;2.00;;;;;;;21.79;48.89;102039.03;5073220;28;20060;-63
2021/10/27 15:59:44;;;;;;;4.30;1.88;;;;;;;21.76;49.10;102039.28;5072749;28;20028;-64
2021/10/27 16:02:11;;;;;;;5.53;2.22;;;;;;;21.76;48.87;102041.94;5073119;28;20032;-63
2021/10/27 16:04:38;;;;;;;4.63;1.90;;;;;;;21.71;48.98;102042.28;5073477;28;20028;-64
2021/10/27 16:07:06;;;;;;;5.63;1.90;;;;;;;21.68;49.13;102040.75;5072107;28;20041;-65
2021/10/27 16:09:38;;;;;;;5.13;1.90;;;;;;;21.65;49.40;102048.06;5072492;28;20056;-65